createdAt,value
2023-05-09T00:00:07.232Z,4.00
2023-05-09T00:02:36.080Z,4.50
2023-05-09T00:05:05.207Z,4.70
2023-05-09T00:07:33.034Z,4.53
2023-05-09T00:10:01.167Z,4.70
2023-05-09T00:12:28.932Z,4.97
2023-05-09T00:14:56.884Z,5.03
2023-05-09T00:17:24.730Z,4.23
2023-05-09T00:19:53.088Z,4.97
2023-05-09T00:22:23.872Z,5.00
2023-05-09T00:24:51.796Z,5.13
2023-05-09T00:27:19.530Z,5.47
2023-05-09T00:29:47.204Z,5.20
2023-05-09T00:32:14.979Z,5.03
2023-05-09T00:34:42.820Z,5.03
2023-05-09T00:37:10.555Z,4.90
2023-05-09T00:39:38.279Z,5.70
2023-05-09T00:42:06.052Z,5.63
2023-05-09T00:44:33.759Z,5.23
2023-05-09T00:47:01.497Z,5.90
2023-05-09T00:49:29.173Z,4.67
2023-05-09T00:51:57.200Z,4.47
2023-05-09T00:54:25.118Z,5.33
2023-05-09T00:56:53.034Z,5.20
2023-05-09T00:59:21.948Z,5.20
2023-05-09T01:01:49.969Z,5.73
2023-05-09T01:04:17.650Z,6.03
2023-05-09T01:06:50.429Z,5.37
2023-05-09T01:09:36.764Z,5.93
2023-05-09T01:12:13.972Z,6.00
2023-05-09T01:15:02.191Z,5.10
2023-05-09T01:17:48.690Z,4.57
2023-05-09T01:20:33.460Z,4.57
2023-05-09T01:23:12.443Z,4.47
2023-05-09T01:25:57.889Z,4.57
2023-05-09T01:28:46.349Z,4.40
2023-05-09T01:31:14.085Z,5.00
2023-05-09T01:33:42.175Z,4.63
2023-05-09T01:36:12.384Z,4.43
2023-05-09T01:38:40.116Z,5.33
2023-05-09T01:41:08.784Z,5.30
2023-05-09T01:43:36.525Z,4.80
2023-05-09T01:46:05.460Z,4.77
2023-05-09T01:48:33.313Z,5.00
2023-05-09T01:51:01.016Z,3.47
2023-05-09T01:53:28.739Z,3.97
2023-05-09T01:55:56.733Z,3.43
2023-05-09T01:58:24.613Z,3.57
2023-05-09T02:00:52.410Z,3.47
2023-05-09T02:03:21.602Z,3.00
2023-05-09T02:05:49.623Z,2.87
2023-05-09T02:08:17.499Z,2.70
2023-05-09T02:10:45.374Z,2.90
2023-05-09T02:13:13.107Z,2.60
2023-05-09T02:15:40.942Z,2.40
2023-05-09T02:18:08.619Z,2.73
2023-05-09T02:20:36.379Z,2.90
2023-05-09T02:23:04.131Z,2.63
2023-05-09T02:25:33.069Z,2.97
2023-05-09T02:28:01.009Z,2.50
2023-05-09T02:30:31.268Z,2.43
2023-05-09T02:33:01.620Z,2.57
2023-05-09T02:35:29.355Z,2.50
2023-05-09T02:37:58.402Z,2.10
2023-05-09T02:40:26.970Z,2.60
2023-05-09T02:42:55.548Z,2.07
2023-05-09T02:45:23.502Z,2.77
2023-05-09T02:47:51.180Z,2.60
2023-05-09T02:50:19.109Z,3.50
2023-05-09T02:52:46.939Z,2.70
2023-05-09T02:55:14.985Z,2.57
2023-05-09T02:57:44.268Z,2.87
2023-05-09T03:00:12.528Z,3.30
2023-05-09T03:02:40.431Z,2.70
2023-05-09T03:05:15.651Z,2.87
2023-05-09T03:07:44.480Z,2.23
2023-05-09T03:10:12.319Z,2.30
2023-05-09T03:12:40.228Z,1.90
2023-05-09T03:15:08.935Z,2.10
2023-05-09T03:17:38.363Z,1.93
2023-05-09T03:20:07.837Z,1.90
2023-05-09T03:22:35.611Z,1.60
2023-05-09T03:25:06.511Z,1.60
2023-05-09T03:27:34.248Z,1.73
2023-05-09T03:30:02.470Z,1.27
2023-05-09T03:32:30.293Z,1.30
2023-05-09T03:34:58.178Z,1.33
2023-05-09T03:37:27.334Z,1.23
2023-05-09T03:39:55.627Z,1.33
2023-05-09T03:42:24.303Z,1.00
2023-05-09T03:44:55.943Z,1.10
2023-05-09T03:47:23.902Z,1.07
2023-05-09T03:49:53.631Z,1.37
2023-05-09T03:52:23.811Z,2.43
2023-05-09T03:54:51.874Z,1.57
2023-05-09T03:57:19.770Z,1.20
2023-05-09T03:59:50.119Z,0.87
2023-05-09T04:02:17.955Z,1.20
2023-05-09T04:04:47.333Z,0.90
2023-05-09T04:07:17.473Z,1.33
2023-05-09T04:09:46.966Z,1.30
2023-05-09T04:12:14.727Z,1.10
2023-05-09T04:14:43.316Z,0.83
2023-05-09T04:17:11.526Z,1.10
2023-05-09T04:19:39.411Z,1.10
2023-05-09T04:22:07.095Z,1.00
2023-05-09T04:24:34.855Z,1.80
2023-05-09T04:27:02.660Z,1.20
2023-05-09T04:29:31.523Z,1.00
2023-05-09T04:32:00.415Z,0.77
2023-05-09T04:34:29.660Z,0.60
2023-05-09T04:37:01.202Z,0.70
2023-05-09T04:39:30.434Z,0.53
2023-05-09T04:42:05.512Z,0.60
2023-05-09T04:44:33.786Z,0.70
2023-05-09T04:47:01.554Z,0.60
2023-05-09T04:49:29.327Z,0.47
2023-05-09T04:51:57.723Z,0.80
2023-05-09T04:54:26.892Z,0.70
2023-05-09T04:57:03.099Z,0.50
2023-05-09T04:59:38.281Z,0.97
2023-05-09T05:02:06.680Z,0.87
2023-05-09T05:04:34.956Z,0.70
2023-05-09T05:07:03.572Z,1.17
2023-05-09T05:09:31.449Z,0.70
2023-05-09T05:12:02.371Z,0.80
2023-05-09T05:14:33.138Z,1.13
2023-05-09T05:17:00.983Z,0.90
2023-05-09T05:19:29.193Z,1.30
2023-05-09T05:21:57.818Z,1.27
2023-05-09T05:24:26.760Z,2.10
2023-05-09T05:26:54.699Z,1.77
2023-05-09T05:29:22.717Z,0.90
2023-05-09T05:31:50.775Z,0.77
2023-05-09T05:34:18.567Z,0.47
2023-05-09T05:36:47.771Z,0.50
2023-05-09T05:39:15.588Z,0.60
2023-05-09T05:41:43.378Z,0.67
2023-05-09T05:44:11.923Z,1.00
2023-05-09T05:46:39.944Z,1.00
2023-05-09T05:49:07.771Z,1.03
2023-05-09T05:51:35.651Z,0.60
2023-05-09T05:54:04.937Z,0.70
2023-05-09T05:56:32.755Z,0.50
2023-05-09T05:59:00.480Z,0.70
2023-05-09T06:01:28.700Z,0.70
2023-05-09T06:03:58.862Z,2.53
2023-05-09T06:06:29.692Z,5.10
2023-05-09T06:08:57.583Z,2.90
2023-05-09T06:11:25.326Z,1.90
2023-05-09T06:13:53.394Z,1.30
2023-05-09T06:16:21.451Z,1.20
2023-05-09T06:18:53.364Z,1.30
2023-05-09T06:21:23.060Z,3.33
2023-05-09T06:24:06.453Z,2.20
2023-05-09T06:26:36.342Z,1.40
2023-05-09T06:29:06.304Z,1.50
2023-05-09T06:31:38.458Z,1.10
2023-05-09T06:34:06.528Z,0.80
2023-05-09T06:36:34.750Z,1.10
2023-05-09T06:39:02.461Z,0.97
2023-05-09T06:41:30.258Z,1.00
2023-05-09T06:43:57.989Z,1.60
2023-05-09T06:46:25.891Z,1.10
2023-05-09T06:48:53.573Z,0.90
2023-05-09T06:51:21.391Z,0.73
2023-05-09T06:53:49.119Z,0.70
2023-05-09T06:56:18.829Z,1.17
2023-05-09T06:58:47.714Z,0.93
2023-05-09T07:01:15.508Z,0.70
2023-05-09T07:03:43.288Z,1.00
2023-05-09T07:06:11.147Z,1.40
2023-05-09T07:08:39.043Z,1.40
2023-05-09T07:11:06.788Z,1.00
2023-05-09T07:13:34.490Z,0.77
2023-05-09T07:16:02.284Z,0.70
2023-05-09T07:18:30.139Z,0.70
2023-05-09T07:20:57.855Z,0.60
2023-05-09T07:23:27.175Z,1.10
2023-05-09T07:25:58.673Z,1.10
2023-05-09T07:28:26.454Z,0.90
2023-05-09T07:30:57.294Z,1.00
2023-05-09T07:33:25.016Z,0.60
2023-05-09T07:35:53.122Z,1.00
2023-05-09T07:38:20.881Z,1.30
2023-05-09T07:40:48.595Z,1.57
2023-05-09T07:43:16.288Z,0.90
2023-05-09T07:45:44.020Z,1.10
2023-05-09T07:48:12.560Z,0.83
2023-05-09T07:50:40.234Z,0.80
2023-05-09T07:53:08.087Z,0.93
2023-05-09T07:55:36.436Z,0.77
2023-05-09T07:58:04.212Z,0.60
2023-05-09T08:00:31.954Z,0.77
2023-05-09T08:02:59.949Z,0.90
2023-05-09T08:05:27.754Z,0.97
2023-05-09T08:07:55.458Z,0.90
2023-05-09T08:10:23.594Z,2.50
2023-05-09T08:12:51.474Z,1.97
2023-05-09T08:15:19.191Z,2.30
2023-05-09T08:17:46.929Z,2.77
2023-05-09T08:20:14.647Z,1.70
2023-05-09T08:22:42.449Z,1.53
2023-05-09T08:25:10.440Z,1.57
2023-05-09T08:27:38.191Z,1.97
2023-05-09T08:30:06.621Z,1.57
2023-05-09T08:32:34.389Z,1.17
2023-05-09T08:35:02.140Z,2.10
2023-05-09T08:37:30.010Z,2.33
2023-05-09T08:39:57.693Z,2.03
2023-05-09T08:42:26.673Z,1.67
2023-05-09T08:44:54.553Z,1.87
2023-05-09T08:47:22.470Z,1.00
2023-05-09T08:49:50.407Z,1.33
2023-05-09T08:52:18.328Z,1.37
2023-05-09T08:54:46.238Z,2.00
2023-05-09T08:57:14.010Z,1.20
2023-05-09T08:59:42.365Z,1.00
2023-05-09T09:02:12.401Z,1.03
2023-05-09T09:04:40.324Z,1.23
2023-05-09T09:07:08.245Z,1.80
2023-05-09T09:09:36.004Z,1.17
2023-05-09T09:12:06.696Z,0.80
2023-05-09T09:14:34.456Z,1.43
2023-05-09T09:17:02.118Z,1.37
2023-05-09T09:19:31.203Z,1.30
2023-05-09T09:21:59.832Z,1.77
2023-05-09T09:24:27.664Z,1.00
2023-05-09T09:26:55.632Z,1.20
2023-05-09T09:29:23.762Z,1.40
2023-05-09T09:31:57.435Z,0.80
2023-05-09T09:34:25.473Z,0.60
2023-05-09T09:36:53.209Z,1.53
2023-05-09T09:39:22.033Z,0.97
2023-05-09T09:41:49.884Z,0.80
2023-05-09T09:44:19.373Z,1.00
2023-05-09T09:46:55.081Z,0.80
2023-05-09T09:49:23.933Z,1.23
2023-05-09T09:51:55.728Z,0.97
2023-05-09T09:54:23.412Z,0.87
2023-05-09T09:56:53.341Z,0.70
2023-05-09T09:59:21.953Z,0.83
2023-05-09T10:01:59.819Z,0.60
2023-05-09T10:04:29.762Z,0.90
2023-05-09T10:07:07.596Z,0.70
2023-05-09T10:09:36.108Z,0.67
2023-05-09T10:12:06.318Z,0.90
2023-05-09T10:14:35.766Z,0.80
2023-05-09T10:17:04.956Z,0.83
2023-05-09T10:19:33.133Z,0.83
2023-05-09T10:22:08.339Z,0.90
2023-05-09T10:24:56.917Z,0.80
2023-05-09T10:27:27.125Z,0.83
2023-05-09T10:30:07.222Z,0.90
2023-05-09T10:32:42.346Z,0.93
2023-05-09T10:35:11.370Z,0.80
2023-05-09T10:37:39.130Z,0.90
2023-05-09T10:40:07.919Z,0.80
2023-05-09T10:42:36.045Z,0.60
2023-05-09T10:45:04.005Z,0.70
2023-05-09T10:47:33.315Z,0.87
2023-05-09T10:50:01.041Z,1.53
2023-05-09T10:52:33.657Z,1.00
2023-05-09T10:55:02.373Z,0.80
2023-05-09T10:57:31.215Z,0.70
2023-05-09T11:00:00.190Z,0.77
2023-05-09T11:02:32.671Z,0.80
2023-05-09T11:05:19.387Z,1.27
2023-05-09T11:07:47.233Z,1.07
2023-05-09T11:10:19.442Z,1.23
2023-05-09T11:13:13.284Z,1.40
2023-05-09T11:16:01.708Z,1.80
2023-05-09T11:18:29.959Z,1.10
2023-05-09T11:20:57.683Z,1.87
2023-05-09T11:23:30.535Z,1.30
2023-05-09T11:26:08.280Z,1.20
2023-05-09T11:28:38.104Z,1.70
2023-05-09T11:31:09.716Z,1.27
2023-05-09T11:33:37.844Z,1.23
2023-05-09T11:36:34.895Z,1.40
2023-05-09T11:39:09.085Z,1.30
2023-05-09T11:41:45.141Z,1.40
2023-05-09T11:44:17.159Z,1.40
2023-05-09T11:46:45.892Z,0.90
2023-05-09T11:49:13.937Z,0.90
2023-05-09T11:51:41.713Z,1.50
2023-05-09T11:54:10.525Z,1.47
2023-05-09T11:56:39.907Z,2.10
2023-05-09T11:59:07.795Z,1.90
2023-05-09T12:01:36.026Z,2.70
2023-05-09T12:04:04.185Z,3.13
2023-05-09T12:06:32.998Z,3.03
2023-05-09T12:09:00.711Z,2.07
2023-05-09T12:11:29.836Z,1.00
2023-05-09T12:13:57.536Z,1.30
2023-05-09T12:16:25.478Z,2.47
2023-05-09T12:18:53.395Z,2.10
2023-05-09T12:21:21.693Z,7.50
2023-05-09T12:23:52.368Z,8.90
2023-05-09T12:26:22.558Z,10.20
2023-05-09T12:28:50.403Z,4.70
2023-05-09T12:31:18.564Z,4.90
2023-05-09T12:33:47.200Z,1.90
2023-05-09T12:36:16.012Z,4.23
2023-05-09T12:38:55.872Z,9.23
2023-05-09T12:41:36.959Z,3.23
2023-05-09T12:44:09.798Z,2.47
2023-05-09T12:46:38.066Z,2.57
2023-05-09T12:49:05.925Z,3.50
2023-05-09T12:51:33.664Z,3.70
2023-05-09T12:54:05.151Z,6.77
2023-05-09T12:56:34.182Z,3.87
2023-05-09T12:59:01.917Z,4.00
2023-05-09T13:01:29.897Z,9.00
2023-05-09T13:04:02.371Z,4.03
2023-05-09T13:06:30.820Z,1.70
2023-05-09T13:09:04.316Z,4.00
2023-05-09T13:11:32.175Z,3.50
2023-05-09T13:13:59.945Z,8.43
2023-05-09T13:16:27.764Z,3.93
2023-05-09T13:18:55.483Z,5.87
2023-05-09T13:21:23.301Z,2.27
2023-05-09T13:23:52.031Z,2.67
2023-05-09T13:26:19.861Z,3.00
2023-05-09T13:28:47.636Z,1.40
2023-05-09T13:31:15.515Z,1.20
2023-05-09T13:33:43.252Z,2.20
2023-05-09T13:36:11.053Z,1.60
2023-05-09T13:38:40.714Z,1.40
2023-05-09T13:41:08.861Z,2.50
2023-05-09T13:43:36.673Z,2.60
2023-05-09T13:46:04.449Z,2.20
2023-05-09T13:48:32.196Z,1.77
2023-05-09T13:51:01.236Z,1.70
2023-05-09T13:53:28.954Z,1.70
2023-05-09T13:55:57.077Z,2.17
2023-05-09T13:58:24.813Z,1.70
2023-05-09T14:00:52.617Z,1.60
2023-05-09T14:03:20.446Z,3.10
2023-05-09T14:05:48.464Z,2.10
2023-05-09T14:08:16.898Z,1.70
2023-05-09T14:10:44.756Z,5.77
2023-05-09T14:13:12.773Z,2.63
2023-05-09T14:15:40.626Z,2.57
2023-05-09T14:18:08.525Z,26.37
2023-05-09T14:20:37.657Z,8.17
2023-05-09T14:23:05.729Z,8.30
2023-05-09T14:25:33.475Z,4.50
2023-05-09T14:28:01.220Z,4.93
2023-05-09T14:30:28.904Z,2.43
2023-05-09T14:32:56.635Z,4.20
2023-05-09T14:35:24.453Z,9.47
2023-05-09T14:37:52.241Z,6.23
2023-05-09T14:40:20.660Z,5.10
2023-05-09T14:42:48.493Z,7.30
2023-05-09T14:45:16.320Z,5.63
2023-05-09T14:47:44.215Z,2.90
2023-05-09T14:50:15.920Z,3.77
2023-05-09T14:52:44.258Z,3.30
2023-05-09T14:55:12.057Z,4.43
2023-05-09T14:57:39.832Z,3.43
2023-05-09T15:00:19.494Z,3.83
2023-05-09T15:02:49.850Z,8.37
2023-05-09T15:05:17.902Z,4.00
2023-05-09T15:07:45.778Z,3.90
2023-05-09T15:10:13.699Z,3.07
2023-05-09T15:12:41.831Z,3.60
2023-05-09T15:15:17.309Z,12.37
2023-05-09T15:17:45.126Z,6.17
2023-05-09T15:20:14.370Z,4.00
2023-05-09T15:22:42.198Z,5.47
2023-05-09T15:25:10.204Z,4.57
2023-05-09T15:27:38.431Z,4.43
2023-05-09T15:30:06.750Z,9.57
2023-05-09T15:32:35.940Z,9.87
2023-05-09T15:35:03.972Z,11.13
2023-05-09T15:37:33.338Z,9.87
2023-05-09T15:40:04.256Z,10.07
2023-05-09T15:42:32.051Z,6.93
2023-05-09T15:44:59.726Z,5.30
2023-05-09T15:47:27.630Z,8.33
2023-05-09T15:49:55.418Z,18.77
2023-05-09T15:52:23.172Z,13.93
2023-05-09T15:54:50.960Z,8.80
2023-05-09T15:57:18.812Z,5.00
2023-05-09T15:59:46.670Z,10.30
2023-05-09T16:02:14.430Z,13.47
2023-05-09T16:04:43.971Z,6.53
2023-05-09T16:07:11.743Z,7.87
2023-05-09T16:09:39.408Z,24.90
2023-05-09T16:12:07.537Z,30.60
2023-05-09T16:14:36.020Z,22.20
2023-05-09T16:17:04.000Z,9.83
2023-05-09T16:19:33.695Z,17.50
2023-05-09T16:22:02.804Z,7.47
2023-05-09T16:24:31.903Z,11.90
2023-05-09T16:26:59.692Z,8.47
2023-05-09T16:29:28.505Z,13.23
2023-05-09T16:31:56.327Z,9.97
2023-05-09T16:34:24.164Z,12.10
2023-05-09T16:36:52.417Z,10.53
2023-05-09T16:39:20.192Z,5.50
2023-05-09T16:41:47.954Z,7.13
2023-05-09T16:44:15.693Z,6.57
2023-05-09T16:46:43.465Z,7.90
2023-05-09T16:49:12.124Z,12.80
2023-05-09T16:51:40.056Z,11.90
2023-05-09T16:54:07.908Z,8.90
2023-05-09T16:56:36.976Z,5.63
2023-05-09T16:59:04.957Z,10.57
2023-05-09T17:01:32.723Z,6.20
2023-05-09T17:04:01.681Z,9.23
2023-05-09T17:06:29.458Z,9.20
2023-05-09T17:08:57.580Z,14.97
2023-05-09T17:11:25.262Z,11.37
2023-05-09T17:13:53.240Z,9.03
2023-05-09T17:16:20.994Z,5.67
2023-05-09T17:18:48.846Z,9.07
2023-05-09T17:21:16.995Z,7.60
2023-05-09T17:23:44.773Z,6.47
2023-05-09T17:26:12.502Z,4.73
2023-05-09T17:28:40.238Z,3.33
2023-05-09T17:31:08.310Z,3.03
2023-05-09T17:33:36.141Z,3.60
2023-05-09T17:36:03.932Z,2.80
2023-05-09T17:38:31.749Z,3.80
2023-05-09T17:40:59.408Z,3.27
2023-05-09T17:43:28.472Z,3.63
2023-05-09T17:45:56.208Z,3.13
2023-05-09T17:48:24.378Z,2.53
2023-05-09T17:50:52.809Z,3.00
2023-05-09T17:53:20.568Z,3.13
2023-05-09T17:55:48.261Z,3.27
2023-05-09T17:58:16.051Z,3.93
2023-05-09T18:00:44.680Z,2.57
2023-05-09T18:03:12.504Z,2.83
2023-05-09T18:05:40.592Z,2.43
2023-05-09T18:08:08.455Z,2.23
2023-05-09T18:10:36.219Z,5.93
2023-05-09T18:13:04.101Z,3.90
2023-05-09T18:15:37.839Z,2.80
2023-05-09T18:18:09.908Z,4.40
2023-05-09T18:20:38.352Z,5.63
2023-05-09T18:23:06.118Z,6.87
2023-05-09T18:25:36.707Z,3.53
2023-05-09T18:28:04.624Z,4.03
2023-05-09T18:30:32.441Z,3.40
2023-05-09T18:33:01.584Z,4.50
2023-05-09T18:35:29.433Z,3.20
2023-05-09T18:37:57.255Z,2.87
2023-05-09T18:40:24.979Z,2.70
2023-05-09T18:42:52.725Z,2.93
2023-05-09T18:45:20.403Z,2.70
2023-05-09T18:47:48.165Z,2.20
2023-05-09T18:50:16.189Z,2.23
2023-05-09T18:52:45.892Z,3.70
2023-05-09T18:55:14.876Z,4.33
2023-05-09T18:57:42.630Z,3.50
2023-05-09T19:00:10.797Z,2.40
2023-05-09T19:02:38.842Z,2.20
2023-05-09T19:05:07.988Z,1.93
2023-05-09T19:07:35.819Z,2.03
2023-05-09T19:10:04.639Z,3.23
2023-05-09T19:12:32.481Z,2.30
2023-05-09T19:15:00.245Z,1.77
2023-05-09T19:17:28.065Z,2.20
2023-05-09T19:19:55.906Z,1.93
2023-05-09T19:22:23.638Z,1.93
2023-05-09T19:24:51.606Z,2.27
2023-05-09T19:27:19.312Z,2.43
2023-05-09T19:29:49.301Z,2.60
2023-05-09T19:32:20.578Z,2.77
2023-05-09T19:34:48.565Z,4.60
2023-05-09T19:37:16.239Z,2.90
2023-05-09T19:39:43.954Z,1.83
2023-05-09T19:42:11.924Z,1.90
2023-05-09T19:44:40.476Z,3.03
2023-05-09T19:47:09.050Z,2.83
2023-05-09T19:49:36.859Z,2.50
2023-05-09T19:52:04.773Z,2.60
2023-05-09T19:54:32.574Z,2.70
2023-05-09T19:57:00.260Z,1.53
2023-05-09T19:59:29.138Z,1.70
2023-05-09T20:01:56.939Z,1.80
2023-05-09T20:04:24.765Z,1.50
2023-05-09T20:06:52.870Z,1.60
2023-05-09T20:09:21.273Z,1.53
2023-05-09T20:11:48.958Z,1.40
2023-05-09T20:14:16.808Z,1.90
2023-05-09T20:16:44.634Z,1.40
2023-05-09T20:19:13.476Z,1.60
2023-05-09T20:21:41.265Z,1.57
2023-05-09T20:24:09.219Z,1.10
2023-05-09T20:26:37.022Z,1.43
2023-05-09T20:29:04.936Z,1.40
2023-05-09T20:31:32.692Z,1.30
2023-05-09T20:34:00.544Z,1.23
2023-05-09T20:36:28.640Z,3.20
2023-05-09T20:38:59.359Z,2.00
2023-05-09T20:41:27.290Z,2.17
2023-05-09T20:43:55.096Z,1.40
2023-05-09T20:46:22.827Z,1.50
2023-05-09T20:48:50.549Z,1.33
2023-05-09T20:51:18.491Z,1.50
2023-05-09T20:53:46.231Z,1.50
2023-05-09T20:56:13.930Z,1.83
2023-05-09T20:58:41.625Z,2.00
2023-05-09T21:01:09.421Z,2.13
2023-05-09T21:03:37.992Z,2.63
2023-05-09T21:06:06.102Z,5.50
2023-05-09T21:08:33.875Z,2.07
2023-05-09T21:11:01.616Z,1.90
2023-05-09T21:13:29.372Z,1.63
2023-05-09T21:15:57.632Z,1.70
2023-05-09T21:18:25.448Z,1.57
2023-05-09T21:20:53.244Z,1.33
2023-05-09T21:23:21.461Z,1.57
2023-05-09T21:25:49.128Z,1.27
2023-05-09T21:28:17.393Z,1.83
2023-05-09T21:30:50.976Z,1.37
2023-05-09T21:33:18.888Z,1.60
2023-05-09T21:35:46.713Z,1.80
2023-05-09T21:38:14.477Z,1.80
2023-05-09T21:40:42.137Z,2.37
2023-05-09T21:43:09.933Z,2.13
2023-05-09T21:45:37.651Z,2.23
2023-05-09T21:48:05.748Z,2.10
2023-05-09T21:50:33.495Z,1.87
2023-05-09T21:53:01.535Z,1.80
2023-05-09T21:55:29.306Z,1.63
2023-05-09T21:57:57.007Z,1.60
2023-05-09T22:00:24.840Z,1.93
2023-05-09T22:02:52.660Z,1.60
2023-05-09T22:05:20.530Z,1.70
2023-05-09T22:07:48.191Z,1.67
2023-05-09T22:10:16.108Z,1.90
2023-05-09T22:12:44.297Z,1.90
2023-05-09T22:15:12.200Z,2.00
2023-05-09T22:17:39.926Z,1.87
2023-05-09T22:20:08.024Z,1.80
2023-05-09T22:22:35.699Z,1.77
2023-05-09T22:25:04.606Z,1.77
2023-05-09T22:27:32.302Z,2.10
2023-05-09T22:30:00.066Z,1.83
2023-05-09T22:32:27.821Z,1.80
2023-05-09T22:34:55.672Z,1.83
2023-05-09T22:37:23.362Z,2.03
2023-05-09T22:39:51.139Z,2.03
2023-05-09T22:42:18.828Z,2.00
2023-05-09T22:44:47.501Z,1.90
2023-05-09T22:47:16.015Z,1.90
2023-05-09T22:49:45.662Z,2.10
2023-05-09T22:52:13.633Z,2.53
2023-05-09T22:54:41.484Z,2.17
2023-05-09T22:57:09.511Z,1.90
2023-05-09T22:59:37.285Z,1.97
2023-05-09T23:02:05.023Z,3.03
2023-05-09T23:04:32.789Z,2.80
2023-05-09T23:07:00.469Z,2.70
2023-05-09T23:09:28.497Z,2.73
2023-05-09T23:11:56.262Z,2.60
2023-05-09T23:14:24.017Z,2.73
2023-05-09T23:16:51.678Z,2.57
2023-05-09T23:19:19.955Z,2.63
2023-05-09T23:21:47.632Z,2.23
2023-05-09T23:24:15.484Z,2.40
2023-05-09T23:26:43.232Z,2.17
2023-05-09T23:29:11.206Z,2.20
2023-05-09T23:31:39.198Z,2.47
2023-05-09T23:34:06.961Z,2.30
2023-05-09T23:36:34.695Z,2.50
2023-05-09T23:39:02.508Z,1.90
2023-05-09T23:41:30.205Z,2.33
2023-05-09T23:44:01.962Z,2.07
2023-05-09T23:46:30.167Z,2.47
2023-05-09T23:48:57.843Z,2.20
2023-05-09T23:51:25.576Z,2.40
2023-05-09T23:53:53.367Z,2.03
2023-05-09T23:56:21.312Z,2.17
2023-05-09T23:58:49.046Z,2.13
